DW4642 Weather Reports


Display with metric or nautical units.
time (UTC)temp
F
wind
direction
speed
MPH
gust
MPH
rain 1hr
in
rain 24hr
in
rain mn
in
humidity
%
barometer
mb
20181115022327 25 346 0.0 3.0 0.00 0.00 0.00 45 1034.3
20181115020748 25 342 0.0 3.0 0.00 0.00 0.00 45 1033.8
20181115015255 25 5 0.0 4.0 0.00 0.00 0.00 44 1033.5
20181115013740 26 41 0.0 0.0 0.00 0.01 0.00 41 1033.7
20181115012204 26 336 0.0 3.0 0.00 0.01 0.00 42 1033.7
20181115010653 26 306 0.0 0.0 0.00 0.01 0.00 40 1033.7
20181115005157 27 43 2.0 13.0 0.00 0.01 0.00 40 1032.8
20181115003635 27 333 2.0 11.0 0.00 0.01 0.00 39 1032.6
20181115002130 27 338 0.0 14.0 0.00 0.01 0.00 40 1032.9
20181115000628 27 311 2.0 9.0 0.00 0.01 0.00 40 1032.6
20181114235138 27 44 0.0 5.0 0.00 0.01 0.00 42 1032.4
20181114233706 28 309 1.0 14.0 0.00 0.01 0.00 40 1031.8
20181114232159 28 317 1.0 7.0 0.00 0.01 0.00 41 1031.8
20181114230623 28 45 0.0 2.0 0.00 0.01 0.00 44 1031.5
20181114225129 28 323 1.0 12.0 0.00 0.01 0.00 42 1031.1
20181114223647 29 66 1.0 8.0 0.00 0.01 0.00 42 1031.1
20181114222128 29 321 3.0 12.0 0.00 0.01 0.00 42 1030.6
20181114220634 29 333 2.0 11.0 0.00 0.01 0.00 42 1030.4
20181114215121 29 290 1.0 9.0 0.00 0.01 0.00 41 1030.2
20181114213636 29 309 3.0 11.0 0.00 0.01 0.00 40 1029.5
20181114212108 30 345 3.0 13.0 0.00 0.01 0.00 40 1029.3
20181114210545 30 323 2.0 13.0 0.00 0.01 0.00 40 1029.3
20181114205119 30 304 3.0 11.0 0.00 0.01 0.00 40 1028.9
20181114203611 30 327 3.0 13.0 0.00 0.01 0.00 38 1028.9
20181114202051 31 278 2.0 14.0 0.00 0.01 0.00 39 1028.6
20181114200610 31 329 5.0 18.0 0.00 0.01 0.00 38 1028.4
20181114195031 31 250 6.0 17.0 0.00 0.01 0.00 38 1028.0
20181114193456 31 312 5.0 18.0 0.00 0.01 0.00 38 1028.0
20181114192013 31 286 6.0 18.0 0.00 0.01 0.00 36 1027.7
20181114190502 31 323 5.0 17.0 0.00 0.01 0.00 37 1027.3
20181114185021 32 54 4.0 14.0 0.00 0.01 0.00 38 1027.0
20181114183533 31 274 5.0 19.0 0.00 0.01 0.00 40 1026.8
20181114181951 31 311 6.0 22.0 0.00 0.01 0.00 38 1026.7
20181114180412 31 300 7.0 23.0 0.00 0.01 0.00 39 1026.7
20181114174853 31 70 7.0 22.0 0.00 0.01 0.00 36 1026.5
20181114173346 31 311 8.0 24.0 0.00 0.01 0.00 37 1026.6
20181114171903 32 298 7.0 23.0 0.00 0.02 0.00 36 1026.4
20181114170443 32 295 5.0 18.0 0.00 0.02 0.00 37 1026.6
20181114164946 31 215 8.0 28.0 0.00 0.03 0.00 36 1026.8
20181114163507 31 151 8.0 18.0 0.00 0.04 0.00 36 1026.5
20181114162040 31 309 4.0 19.0 0.00 0.05 0.00 39 1026.5
20181114160544 31 213 6.0 16.0 0.00 0.06 0.00 38 1026.6
20181114155044 31 286 7.0 22.0 0.00 0.06 0.00 38 1026.7
20181114153549 31 321 7.0 22.0 0.00 0.09 0.00 39 1026.5
20181114152011 31 303 6.0 16.0 0.00 0.12 0.00 39 1026.3
20181114150433 31 337 6.0 28.0 0.00 0.14 0.00 40 1026.2
20181114144851 30 185 9.0 28.0 0.00 0.17 0.00 38 1025.8
20181114143420 31 51 5.0 21.0 0.00 0.19 0.00 41 1025.7
20181114141930 30 294 6.0 19.0 0.00 0.22 0.00 42 1025.7
20181114140351 30 264 4.0 19.0 0.00 0.24 0.00 43 1025.6
20181114134908 30 304 9.0 27.0 0.00 0.27 0.00 44 1025.1
20181114133334 30 302 5.0 20.0 0.00 0.31 0.00 48 1024.9
20181114131905 30 348 5.0 20.0 0.00 0.35 0.00 49 1024.8
20181114130429 30 340 2.0 18.0 0.00 0.39 0.00 57 1024.3
20181114124936 30 298 5.0 16.0 0.00 0.43 0.00 56 1023.7
20181114123416 30 311 6.0 23.0 0.00 0.46 0.00 56 1023.4
20181114121955 30 283 4.0 19.0 0.00 0.49 0.00 61 1022.9
20181114120501 31 303 5.0 19.0 0.00 0.53 0.00 61 1022.6
20181114115015 31 292 4.0 17.0 0.00 0.57 0.00 59 1022.2
20181114113448 31 319 3.0 17.0 0.00 0.61 0.00 60 1021.6
20181114111858 31 303 2.0 9.0 0.00 0.64 0.00 64 1021.3
20181114110355 31 36 2.0 9.0 0.00 0.68 0.00 64 1021.0
20181114104927 31 269 1.0 15.0 0.00 0.71 0.00 65 1020.8
20181114103448 31 311 1.0 15.0 0.00 0.73 0.00 63 1020.4
20181114101900 31 65 0.0 8.0 0.00 0.75 0.00 65 1020.4
20181114100424 32 293 2.0 13.0 0.00 0.76 0.00 63 1020.0
20181114094909 31 64 0.0 0.0 0.00 0.78 0.00 65 1019.7
20181114093352 31 169 0.0 0.0 0.00 0.79 0.00 64 1019.6
20181114090318 32 308 1.0 8.0 0.00 0.81 0.00 59 1019.3
20181114084758 32 286 1.0 7.0 0.00 0.83 0.00 58 1019.1
20181114083215 32 317 0.0 6.0 0.00 0.86 0.00 58 1018.8
20181114081659 31 144 0.0 4.0 0.00 0.89 0.00 57 1019.1
20181114080111 31 355 0.0 0.0 0.00 0.93 0.00 59 1018.9
20181114074603 32 348 0.0 8.0 0.00 0.96 0.00 56 1018.8
20181114073033 31 307 0.0 3.0 0.00 0.99 0.00 59 1018.5
20181114071525 32 250 0.0 0.0 0.00 1.02 0.00 60 1018.8
20181114070012 32 292 0.0 0.0 0.00 1.04 0.00 58 1018.8
20181114064446 32 355 0.0 13.0 0.00 1.06 0.00 56 1018.5
20181114062924 33 9 2.0 13.0 0.00 1.08 0.00 55 1018.2
20181114061427 33 310 2.0 10.0 0.00 1.09 0.00 57 1018.1
20181114055932 33 44 3.0 14.0 0.00 1.09 0.00 57 1018.0
20181114054404 33 331 2.0 12.0 0.00 1.09 0.00 59 1017.8
20181114052821 34 271 3.0 12.0 0.00 1.09 0.00 61 1018.1
20181114051310 35 51 5.0 16.0 0.00 1.09 0.00 61 1017.6
20181114045757 35 291 2.0 18.0 0.00 1.09 1.09 61 1017.5
20181114044212 36 301 5.0 18.0 0.00 1.09 1.09 59 1017.0
20181114042641 37 296 4.0 13.0 0.00 1.09 1.09 58 1016.5
20181114041133 37 299 4.0 18.0 0.00 1.09 1.09 56 1016.2
20181114035656 38 296 4.0 14.0 0.00 1.09 1.09 59 1015.9
20181114034110 38 311 2.0 10.0 0.00 1.09 1.09 63 1015.5
20181114032541 38 302 3.0 15.0 0.00 1.09 1.09 62 1015.2
20181114031043 38 331 1.0 10.0 0.00 1.09 1.09 62 1014.8
20181114025455 39 313 3.0 13.0 0.00 1.09 1.09 62 1014.3
20181114024030 39 336 2.0 13.0 0.00 1.09 1.09 64 1014.1